Time;durP1;ratioP1;P1;durP2;ratioP2;P2;SDS_P1;SDS_P2;PMS_P1;PMS_P2;Temp;Humidity;BMP_temperature;BMP_pressure;BME280_temperature;BME280_humidity;BME280_pressure;Samples;Min_cycle;Max_cycle;Signal;HPM_P1;HPM_P2
2023/05/20 00:00:34;;;;;;;20.80;6.28;;;11.10;99.90;;;;;;5071516;28;20515;-58
2023/05/20 00:03:01;;;;;;;20.40;7.18;;;11.10;99.90;;;;;;5053320;28;20063;-58
2023/05/20 00:05:29;;;;;;;18.38;6.72;;;11.00;99.90;;;;;;5064654;28;20040;-57
2023/05/20 00:07:58;;;;;;;24.05;7.50;;;11.00;99.90;;;;;;5067090;28;20217;-59
2023/05/20 00:10:26;;;;;;;19.40;7.60;;;10.90;99.90;;;;;;5072778;28;20050;-59
2023/05/20 00:12:54;;;;;;;19.38;6.90;;;10.90;99.90;;;;;;5064485;28;20056;-59
2023/05/20 00:15:22;;;;;;;18.13;7.60;;;10.80;99.90;;;;;;5067923;28;20041;-59
2023/05/20 00:17:50;;;;;;;23.13;6.80;;;10.80;99.90;;;;;;5066438;28;20040;-59
2023/05/20 00:20:18;;;;;;;21.77;6.70;;;10.80;99.90;;;;;;5061244;28;20510;-59
2023/05/20 00:22:46;;;;;;;21.55;7.13;;;10.70;99.90;;;;;;5068308;28;20051;-58
2023/05/20 00:25:14;;;;;;;21.15;7.03;;;10.70;99.90;;;;;;5075695;28;20036;-58
2023/05/20 00:27:42;;;;;;;18.65;6.88;;;10.60;99.90;;;;;;5068349;28;20244;-58
2023/05/20 00:30:11;;;;;;;23.00;6.88;;;10.60;99.90;;;;;;5066876;28;20060;-58
2023/05/20 00:32:39;;;;;;;23.85;8.48;;;10.50;99.90;;;;;;5047614;28;20052;-57
2023/05/20 00:35:09;;;;;;;19.73;8.52;;;10.50;99.90;;;;;;5066353;28;20373;-58
2023/05/20 00:37:37;;;;;;;25.83;8.80;;;10.40;99.90;;;;;;5065223;28;20064;-57
2023/05/20 00:40:06;;;;;;;22.02;7.57;;;10.40;99.90;;;;;;5066756;28;20044;-58
2023/05/20 00:42:34;;;;;;;21.75;7.40;;;10.30;99.90;;;;;;5065791;28;20052;-59
2023/05/20 00:45:02;;;;;;;22.85;6.45;;;10.30;99.90;;;;;;5066505;28;20396;-59
2023/05/20 00:47:33;;;;;;;17.20;6.22;;;10.20;99.90;;;;;;5067836;28;20055;-58
2023/05/20 00:50:02;;;;;;;16.02;6.00;;;10.20;99.90;;;;;;5066766;28;20044;-58
2023/05/20 00:52:31;;;;;;;17.02;6.63;;;10.20;99.90;;;;;;5067250;28;20040;-57
2023/05/20 00:54:59;;;;;;;25.15;7.25;;;10.10;99.90;;;;;;5087501;28;20048;-58
2023/05/20 00:57:28;;;;;;;16.75;7.18;;;10.10;99.90;;;;;;5071143;28;20044;-58
2023/05/20 00:59:56;;;;;;;18.48;6.85;;;10.00;99.90;;;;;;5086610;28;20067;-56
2023/05/20 01:02:24;;;;;;;22.05;6.95;;;10.00;99.90;;;;;;5064845;28;20060;-57
2023/05/20 01:04:55;;;;;;;19.95;7.53;;;10.00;99.90;;;;;;5062518;28;20048;-57
2023/05/20 01:07:24;;;;;;;20.80;8.05;;;9.90;99.90;;;;;;5065498;28;20045;-59
2023/05/20 01:09:54;;;;;;;19.30;7.43;;;9.90;99.90;;;;;;5065914;28;20045;-59
2023/05/20 01:12:26;;;;;;;;;;;9.80;99.90;;;;;;5066569;28;20040;-59
2023/05/20 01:15:12;;;;;;;22.58;7.32;;;9.80;99.90;;;;;;5066500;28;19920;-59
2023/05/20 01:17:50;;;;;;;21.13;8.57;;;9.80;99.90;;;;;;5050352;28;20052;-57
2023/05/20 01:20:19;;;;;;;23.77;8.57;;;9.70;99.90;;;;;;5057829;28;20044;-57
2023/05/20 01:22:49;;;;;;;19.85;9.63;;;9.70;99.90;;;;;;5070311;28;20115;-58
2023/05/20 01:25:17;;;;;;;15.70;8.23;;;9.60;99.90;;;;;;5070813;28;20048;-58
2023/05/20 01:27:47;;;;;;;21.75;10.00;;;9.60;99.90;;;;;;5071233;28;20044;-57
2023/05/20 01:30:16;;;;;;;;;;;9.60;99.90;;;;;;5054505;28;20541;-58
2023/05/20 01:32:53;;;;;;;21.13;8.68;;;9.60;99.90;;;;;;5052805;28;19920;-58
2023/05/20 01:35:22;;;;;;;19.77;8.88;;;9.50;99.90;;;;;;5063419;28;20044;-59
2023/05/20 01:37:52;;;;;;;18.67;7.88;;;9.50;99.90;;;;;;5071954;28;20052;-59
2023/05/20 01:40:21;;;;;;;16.92;7.50;;;9.40;99.90;;;;;;5074229;28;20510;-59
2023/05/20 01:42:51;;;;;;;18.42;7.63;;;9.40;99.90;;;;;;5074536;28;20395;-59
2023/05/20 01:45:22;;;;;;;19.35;7.47;;;9.40;99.90;;;;;;5072496;28;20060;-58
2023/05/20 01:47:50;;;;;;;13.70;6.20;;;9.40;99.90;;;;;;5073637;28;20035;-58
2023/05/20 01:50:18;;;;;;;15.73;6.43;;;9.40;99.90;;;;;;5073423;28;20051;-57
2023/05/20 01:52:46;;;;;;;17.38;7.05;;;9.30;99.90;;;;;;5054082;28;20472;-56
2023/05/20 01:55:13;;;;;;;14.45;5.82;;;9.30;99.90;;;;;;5052926;28;20044;-56
2023/05/20 01:57:42;;;;;;;17.63;6.35;;;9.30;99.90;;;;;;5052077;28;20040;-57
2023/05/20 02:00:10;;;;;;;16.15;7.18;;;9.20;99.90;;;;;;5052718;28;20052;-56
2023/05/20 02:02:41;;;;;;;16.88;7.00;;;9.20;99.90;;;;;;5062741;28;20049;-57
2023/05/20 02:05:12;;;;;;;17.95;7.50;;;9.20;99.90;;;;;;5072011;28;20041;-55
2023/05/20 02:07:42;;;;;;;16.80;7.13;;;9.10;99.90;;;;;;5072288;28;20048;-58
2023/05/20 02:10:10;;;;;;;23.35;8.20;;;9.10;99.90;;;;;;5070546;28;20048;-58
2023/05/20 02:12:38;;;;;;;21.30;7.45;;;9.00;99.90;;;;;;5068224;28;20052;-58
2023/05/20 02:15:07;;;;;;;18.23;7.15;;;9.00;99.90;;;;;;5072515;28;20037;-59
2023/05/20 02:17:35;;;;;;;18.27;7.78;;;9.00;99.90;;;;;;5077339;28;20040;-59
2023/05/20 02:20:06;;;;;;;21.75;8.80;;;9.00;99.90;;;;;;5073466;28;20040;-58
2023/05/20 02:22:34;;;;;;;20.48;9.68;;;8.90;99.90;;;;;;5072004;28;20041;-58
2023/05/20 02:25:03;;;;;;;16.48;7.90;;;8.90;99.90;;;;;;5071506;28;20040;-58
2023/05/20 02:27:31;;;;;;;17.13;6.95;;;8.90;99.90;;;;;;5072064;28;20051;-59
2023/05/20 02:30:00;;;;;;;18.00;7.03;;;8.80;99.90;;;;;;5073351;28;20052;-59
2023/05/20 02:32:28;;;;;;;19.05;7.95;;;8.80;99.90;;;;;;5087400;28;20040;-59
2023/05/20 02:34:56;;;;;;;20.90;7.93;;;8.80;99.90;;;;;;5072057;28;20492;-58
2023/05/20 02:37:24;;;;;;;23.25;10.55;;;8.80;99.90;;;;;;5071842;28;20041;-58
2023/05/20 02:39:55;;;;;;;17.88;8.98;;;8.70;99.90;;;;;;5072074;28;20484;-58
2023/05/20 02:42:22;;;;;;;20.75;9.50;;;8.60;99.90;;;;;;5071959;28;20044;-57
2023/05/20 02:44:52;;;;;;;26.05;10.80;;;8.70;99.90;;;;;;5071362;28;20056;-58
2023/05/20 02:47:19;;;;;;;24.13;10.82;;;8.60;99.90;;;;;;5074892;28;20051;-58
2023/05/20 02:49:47;;;;;;;26.83;10.85;;;8.60;99.90;;;;;;5074395;28;20491;-57
2023/05/20 02:52:15;;;;;;;33.30;13.00;;;8.60;99.90;;;;;;5054668;28;20040;-57
2023/05/20 02:54:44;;;;;;;29.27;12.73;;;8.70;99.90;;;;;;5072761;28;20051;-57
2023/05/20 02:57:11;;;;;;;27.67;13.27;;;8.70;99.90;;;;;;5072624;28;20049;-56
2023/05/20 02:59:40;;;;;;;30.63;13.68;;;8.80;99.90;;;;;;5072540;28;20045;-58
2023/05/20 03:02:08;;;;;;;26.38;12.93;;;8.80;99.90;;;;;;5071589;28;20052;-57
2023/05/20 03:04:39;;;;;;;21.20;10.88;;;8.80;99.90;;;;;;5051331;28;20060;-57
2023/05/20 03:07:07;;;;;;;30.48;11.10;;;8.90;99.90;;;;;;5051150;28;20048;-58
2023/05/20 03:09:36;;;;;;;25.13;10.90;;;8.90;99.90;;;;;;5065479;28;20044;-57
2023/05/20 03:12:05;;;;;;;22.90;11.43;;;8.90;99.90;;;;;;5054605;28;20510;-57
2023/05/20 03:14:32;;;;;;;27.88;11.88;;;8.90;99.90;;;;;;5070497;28;20475;-58
2023/05/20 03:17:01;;;;;;;28.25;11.90;;;8.90;99.90;;;;;;5055375;28;20045;-57
2023/05/20 03:19:29;;;;;;;23.08;11.65;;;8.80;99.90;;;;;;5077860;28;20049;-59
2023/05/20 03:21:57;;;;;;;23.88;12.05;;;8.80;99.90;;;;;;5071067;28;20040;-56
2023/05/20 03:24:25;;;;;;;29.30;12.65;;;8.80;99.90;;;;;;5070813;28;20052;-55
2023/05/20 03:26:53;;;;;;;28.90;12.38;;;8.70;99.90;;;;;;5085606;28;20047;-57
2023/05/20 03:29:22;;;;;;;26.65;12.43;;;8.70;99.90;;;;;;5056523;28;20516;-56
2023/05/20 03:31:50;;;;;;;28.77;11.98;;;8.70;99.90;;;;;;5034225;28;20139;-57
2023/05/20 03:34:18;;;;;;;25.50;11.15;;;8.60;99.90;;;;;;5050846;28;20056;-56
2023/05/20 03:36:50;;;;;;;24.88;11.93;;;8.60;99.90;;;;;;5051104;28;20045;-57
2023/05/20 03:39:17;;;;;;;27.70;12.70;;;8.60;99.90;;;;;;5060971;28;20036;-57
2023/05/20 03:41:46;;;;;;;26.45;12.32;;;8.50;99.90;;;;;;5070790;28;20384;-57
2023/05/20 03:44:18;;;;;;;26.48;12.10;;;8.50;99.90;;;;;;5050343;28;20049;-55
2023/05/20 03:46:46;;;;;;;27.20;12.80;;;8.50;99.90;;;;;;5050729;28;20045;-56
2023/05/20 03:49:14;;;;;;;31.05;13.88;;;8.50;99.90;;;;;;5106429;28;20392;-57
2023/05/20 03:51:42;;;;;;;24.75;11.15;;;8.40;99.90;;;;;;5073695;28;20048;-56
2023/05/20 03:54:12;;;;;;;;;;;8.40;99.90;;;;;;5070778;28;20422;-55
2023/05/20 03:56:40;;;;;;;30.73;13.15;;;8.30;99.90;;;;;;5061399;28;19921;-56
2023/05/20 03:59:09;;;;;;;25.85;11.73;;;8.30;99.90;;;;;;5070265;28;20040;-56
2023/05/20 04:01:37;;;;;;;26.80;11.57;;;8.30;99.90;;;;;;5054039;28;20056;-56
2023/05/20 04:04:05;;;;;;;25.17;12.25;;;8.20;99.90;;;;;;5072050;28;20051;-55
2023/05/20 04:06:33;;;;;;;23.77;10.93;;;8.20;99.90;;;;;;5069880;28;20052;-55
2023/05/20 04:09:00;;;;;;;28.30;11.35;;;8.10;99.90;;;;;;5068507;28;20525;-56
2023/05/20 04:11:28;;;;;;;30.38;13.25;;;8.10;99.90;;;;;;5052440;28;20052;-56
2023/05/20 04:13:59;;;;;;;25.67;12.18;;;8.10;99.90;;;;;;5070483;28;20412;-56
2023/05/20 04:16:28;;;;;;;25.67;12.15;;;8.00;99.90;;;;;;5069898;28;20398;-57
2023/05/20 04:18:58;;;;;;;26.63;12.40;;;8.00;99.90;;;;;;5073785;28;20049;-57
2023/05/20 04:21:26;;;;;;;24.30;10.85;;;7.90;99.90;;;;;;5070238;28;20041;-57
2023/05/20 04:23:54;;;;;;;25.42;11.90;;;7.90;99.90;;;;;;5086708;28;20404;-59
2023/05/20 04:26:22;;;;;;;27.48;12.63;;;7.80;99.90;;;;;;5069686;28;20055;-57
2023/05/20 04:28:50;;;;;;;29.00;12.93;;;7.80;99.90;;;;;;5056668;28;20068;-58
2023/05/20 04:31:19;;;;;;;29.85;13.05;;;7.80;99.90;;;;;;5083761;28;20388;-57
2023/05/20 04:33:47;;;;;;;24.67;12.32;;;7.80;99.90;;;;;;5053989;28;20049;-57
2023/05/20 04:36:16;;;;;;;26.77;13.00;;;7.80;99.90;;;;;;5065903;28;20048;-56
2023/05/20 04:38:44;;;;;;;23.88;12.65;;;7.80;99.90;;;;;;5050070;28;20389;-56
2023/05/20 04:41:12;;;;;;;25.73;11.88;;;7.70;99.90;;;;;;5051202;28;20049;-55
2023/05/20 04:43:39;;;;;;;25.95;13.20;;;7.70;99.90;;;;;;5050197;28;20041;-56
2023/05/20 04:46:08;;;;;;;32.55;13.48;;;7.70;99.90;;;;;;5056052;28;20045;-57
2023/05/20 04:48:36;;;;;;;28.42;12.80;;;7.60;99.90;;;;;;5056724;28;20041;-56
2023/05/20 04:51:04;;;;;;;26.85;12.55;;;7.60;99.90;;;;;;5066308;28;20044;-57
2023/05/20 04:53:34;;;;;;;28.73;12.88;;;7.60;99.90;;;;;;5067427;28;20048;-56
2023/05/20 04:56:03;;;;;;;33.78;14.57;;;7.60;99.90;;;;;;5051804;28;20048;-56
2023/05/20 04:58:32;;;;;;;33.33;14.10;;;7.60;99.90;;;;;;5071650;28;20499;-57
2023/05/20 05:01:01;;;;;;;33.47;14.07;;;7.60;99.90;;;;;;5070056;28;20267;-57
2023/05/20 05:03:29;;;;;;;29.03;14.40;;;7.60;99.90;;;;;;5055816;28;20534;-56
2023/05/20 05:05:58;;;;;;;30.98;13.88;;;7.60;99.90;;;;;;5067849;28;20048;-57
2023/05/20 05:08:26;;;;;;;27.90;13.50;;;7.60;99.90;;;;;;5068456;28;20036;-57
2023/05/20 05:10:54;;;;;;;33.97;13.45;;;7.60;99.90;;;;;;5069916;28;20044;-55
2023/05/20 05:13:22;;;;;;;36.10;13.73;;;7.70;99.90;;;;;;5067138;28;20048;-58
2023/05/20 05:15:58;;;;;;;29.23;13.32;;;7.70;99.90;;;;;;5068408;28;20075;-57
2023/05/20 05:18:28;;;;;;;27.00;13.20;;;7.70;99.90;;;;;;5061456;28;20049;-57
2023/05/20 05:21:01;;;;;;;28.90;12.70;;;7.80;99.90;;;;;;5057446;28;20052;-59
2023/05/20 05:23:29;;;;;;;31.48;13.88;;;7.80;99.90;;;;;;5069538;28;20437;-57
2023/05/20 05:25:57;;;;;;;30.15;12.07;;;7.80;99.90;;;;;;5069123;28;20051;-57
2023/05/20 05:28:25;;;;;;;28.27;12.60;;;7.80;99.90;;;;;;5036430;28;20041;-57
2023/05/20 05:30:57;;;;;;;32.15;12.02;;;7.90;99.90;;;;;;5068426;28;20057;-58
2023/05/20 05:33:27;;;;;;;30.30;12.93;;;7.90;99.90;;;;;;5060003;28;20040;-57
2023/05/20 05:35:57;;;;;;;29.95;12.40;;;8.00;99.90;;;;;;5049988;28;20056;-57
2023/05/20 05:38:26;;;;;;;27.50;12.60;;;7.90;99.90;;;;;;5066455;28;20048;-56
2023/05/20 05:40:54;;;;;;;26.50;12.07;;;8.00;99.90;;;;;;5068136;28;20056;-57
2023/05/20 05:43:22;;;;;;;31.60;13.07;;;8.00;99.90;;;;;;5069276;28;20044;-57
2023/05/20 05:45:51;;;;;;;27.40;12.38;;;8.10;99.90;;;;;;5067814;28;20048;-57
2023/05/20 05:48:21;;;;;;;34.28;12.75;;;8.10;99.90;;;;;;5068923;28;20033;-56
2023/05/20 05:50:50;;;;;;;32.53;13.82;;;8.10;99.90;;;;;;5048493;28;20492;-56
2023/05/20 05:53:20;;;;;;;31.73;12.30;;;8.20;99.90;;;;;;5057028;28;20549;-57
2023/05/20 05:55:49;;;;;;;34.08;12.45;;;8.20;99.90;;;;;;5066363;28;20506;-56
2023/05/20 05:58:17;;;;;;;30.13;13.50;;;8.20;99.90;;;;;;5072407;28;20049;-57
2023/05/20 06:00:45;;;;;;;34.78;13.65;;;8.30;99.90;;;;;;5069206;28;20404;-57
2023/05/20 06:03:13;;;;;;;38.03;14.25;;;8.30;99.90;;;;;;5065102;28;20041;-56
2023/05/20 06:05:45;;;;;;;32.03;13.25;;;8.40;99.90;;;;;;5048843;28;20182;-57
2023/05/20 06:08:13;;;;;;;25.20;12.20;;;8.40;99.90;;;;;;5068486;28;20040;-56
2023/05/20 06:10:45;;;;;;;27.08;13.50;;;8.50;99.90;;;;;;5065212;28;20055;-55
2023/05/20 06:13:16;;;;;;;29.73;12.90;;;8.60;99.90;;;;;;5049364;28;20040;-57
2023/05/20 06:15:45;;;;;;;30.13;12.55;;;11.10;99.90;;;;;;5048984;28;20049;-56
2023/05/20 06:18:13;;;;;;;28.00;12.68;;;8.70;99.90;;;;;;5072990;28;20517;-59
2023/05/20 06:20:41;;;;;;;25.85;12.25;;;8.80;99.90;;;;;;5050416;28;20495;-57
2023/05/20 06:23:09;;;;;;;27.10;12.20;;;8.80;99.90;;;;;;5061613;28;20048;-56
2023/05/20 06:25:58;;;;;;;24.70;10.65;;;8.90;99.90;;;;;;5045683;28;20052;-58
2023/05/20 06:28:26;;;;;;;21.67;9.80;;;8.90;99.90;;;;;;5071482;28;20059;-58
2023/05/20 06:30:56;;;;;;;20.00;9.80;;;9.00;99.90;;;;;;5069443;28;20059;-58
2023/05/20 06:33:27;;;;;;;19.65;8.43;;;9.10;99.90;;;;;;5065175;28;20070;-57
2023/05/20 06:36:00;;;;;;;19.33;8.20;;;9.20;99.90;;;;;;5062570;28;20040;-58
2023/05/20 06:38:29;;;;;;;24.85;9.07;;;9.30;99.90;;;;;;5047788;28;20044;-57
2023/05/20 06:40:57;;;;;;;25.63;8.23;;;9.40;99.90;;;;;;5048634;28;20052;-59
2023/05/20 06:43:25;;;;;;;17.88;8.05;;;9.50;99.90;;;;;;5060300;28;20036;-56
2023/05/20 06:46:14;;;;;;;24.85;8.00;;;9.60;99.90;;;;;;5047150;28;20048;-57
2023/05/20 06:48:47;;;;;;;15.43;7.60;;;9.70;99.90;;;;;;5067936;28;20041;-57
2023/05/20 06:51:22;;;;;;;20.03;8.17;;;9.80;99.90;;;;;;5048377;28;20778;-56
2023/05/20 06:53:50;;;;;;;14.93;7.57;;;9.90;99.90;;;;;;5076153;28;20051;-56
2023/05/20 06:56:20;;;;;;;13.85;5.50;;;13.80;99.90;;;;;;5071668;28;20036;-57
2023/05/20 06:58:48;;;;;;;13.98;6.40;;;10.10;99.90;;;;;;5082903;28;20059;-56
2023/05/20 07:01:17;;;;;;;12.82;6.68;;;10.20;99.90;;;;;;5086928;28;20386;-57
2023/05/20 07:03:47;;;;;;;17.05;6.93;;;10.30;99.90;;;;;;5061079;28;20492;-59
2023/05/20 07:06:15;;;;;;;13.93;6.57;;;10.30;99.90;;;;;;5056446;28;20048;-58
2023/05/20 07:08:44;;;;;;;16.48;7.40;;;;;;;;;;5063642;28;20043;-58
2023/05/20 07:11:12;;;;;;;25.43;8.33;;;10.70;99.90;;;;;;5063836;28;20044;-58
2023/05/20 07:13:40;;;;;;;12.60;5.80;;;10.70;99.90;;;;;;5047845;28;20052;-59
2023/05/20 07:16:09;;;;;;;14.45;5.47;;;10.80;99.90;;;;;;5063909;28;20506;-58
2023/05/20 07:18:39;;;;;;;11.98;6.03;;;10.90;99.90;;;;;;5076266;28;20391;-57
2023/05/20 07:21:10;;;;;;;15.88;6.20;;;11.00;99.90;;;;;;5047523;28;20048;-58
2023/05/20 07:23:59;;;;;;;14.18;6.40;;;11.00;99.90;;;;;;5063260;28;20048;-56
2023/05/20 07:26:29;;;;;;;15.40;6.15;;;11.10;99.90;;;;;;5067223;28;20545;-58
2023/05/20 07:28:57;;;;;;;17.50;5.65;;;11.20;99.90;;;;;;5065008;28;20051;-57
2023/05/20 07:31:25;;;;;;;15.75;5.75;;;11.30;99.90;;;;;;5047348;28;20045;-60
2023/05/20 07:33:53;;;;;;;11.75;5.10;;;11.40;99.90;;;;;;5059777;28;20508;-60
2023/05/20 07:36:22;;;;;;;12.68;6.70;;;11.40;99.90;;;;;;5062459;28;20518;-58
2023/05/20 07:38:53;;;;;;;12.07;5.88;;;11.60;99.90;;;;;;5081975;28;20048;-59
2023/05/20 07:41:34;;;;;;;14.90;5.65;;;11.70;99.90;;;;;;5072358;28;20056;-59
2023/05/20 07:44:07;;;;;;;9.23;4.65;;;11.70;99.90;;;;;;5062168;28;20045;-57
2023/05/20 07:46:39;;;;;;;9.73;4.25;;;11.80;99.90;;;;;;5062499;28;20403;-59
2023/05/20 07:49:08;;;;;;;11.60;4.22;;;11.90;99.90;;;;;;5063839;28;20414;-59
2023/05/20 07:51:36;;;;;;;13.43;4.30;;;12.00;99.90;;;;;;5056529;28;20036;-59
2023/05/20 07:54:05;;;;;;;8.32;4.63;;;12.20;99.90;;;;;;5066190;28;20040;-59
2023/05/20 07:56:33;;;;;;;12.48;4.80;;;;;;;;;;5066930;28;20060;-59
2023/05/20 07:59:02;;;;;;;12.88;4.72;;;12.30;99.90;;;;;;5053476;28;20060;-58
2023/05/20 08:01:35;;;;;;;11.30;4.43;;;12.40;99.90;;;;;;5060369;28;20487;-60
2023/05/20 08:04:04;;;;;;;13.43;4.43;;;12.50;99.90;;;;;;5059359;28;20048;-57
2023/05/20 08:06:34;;;;;;;8.43;4.25;;;12.60;99.90;;;;;;5048116;28;20496;-59
2023/05/20 08:09:03;;;;;;;9.98;3.97;;;12.70;99.90;;;;;;5065048;28;20048;-59
2023/05/20 08:11:38;;;;;;;8.00;4.03;;;12.80;99.90;;;;;;5048157;28;20048;-58
2023/05/20 08:14:06;;;;;;;7.75;3.67;;;12.90;99.90;;;;;;5066257;28;20444;-60
2023/05/20 08:16:42;;;;;;;12.55;3.97;;;13.00;99.90;;;;;;5062223;28;20036;-60
2023/05/20 08:19:10;;;;;;;8.57;4.13;;;13.10;99.90;;;;;;5069447;28;20048;-56
2023/05/20 08:21:38;;;;;;;9.68;3.38;;;13.20;99.90;;;;;;5050655;28;20492;-58
2023/05/20 08:24:06;;;;;;;8.43;3.40;;;13.30;99.90;;;;;;5063232;28;20305;-60
2023/05/20 08:26:35;;;;;;;8.38;3.88;;;13.30;99.90;;;;;;5038484;28;20612;-56
2023/05/20 08:29:03;;;;;;;12.00;3.70;;;13.40;99.90;;;;;;5065294;28;20032;-57
2023/05/20 08:31:32;;;;;;;7.55;3.53;;;13.60;99.90;;;;;;5068697;28;20063;-58
2023/05/20 08:34:00;;;;;;;12.40;4.78;;;13.60;99.90;;;;;;5070443;28;20183;-60
2023/05/20 08:36:28;;;;;;;7.60;3.83;;;13.70;99.90;;;;;;5052054;28;20049;-58
2023/05/20 08:38:58;;;;;;;10.88;5.45;;;13.70;99.90;;;;;;5068753;28;20052;-58
2023/05/20 08:41:28;;;;;;;7.30;3.75;;;13.80;99.90;;;;;;5070348;28;20044;-60
2023/05/20 08:43:59;;;;;;;7.93;4.03;;;13.80;99.90;;;;;;5087729;28;20044;-58
2023/05/20 08:46:31;;;;;;;11.05;4.30;;;13.90;99.90;;;;;;5090472;28;20051;-57
2023/05/20 08:48:59;;;;;;;11.60;4.10;;;14.00;99.90;;;;;;5090276;28;20051;-60
2023/05/20 08:51:28;;;;;;;9.32;4.70;;;14.00;99.90;;;;;;5054203;28;20566;-59
2023/05/20 08:53:58;;;;;;;11.43;4.18;;;14.10;99.90;;;;;;5066614;28;20125;-59
2023/05/20 08:56:26;;;;;;;10.13;4.47;;;14.20;99.90;;;;;;5059046;28;20045;-59
2023/05/20 08:58:57;;;;;;;9.82;3.70;;;14.30;99.90;;;;;;5070277;28;20044;-59
2023/05/20 09:01:25;;;;;;;8.80;3.63;;;14.40;99.90;;;;;;5071858;28;20040;-58
2023/05/20 09:03:53;;;;;;;8.43;3.28;;;14.40;99.90;;;;;;5069470;28;20049;-57
2023/05/20 09:06:22;;;;;;;9.38;3.05;;;14.50;99.90;;;;;;5067140;28;20585;-59
2023/05/20 09:08:51;;;;;;;6.53;3.63;;;14.50;99.90;;;;;;5058466;28;20056;-57
2023/05/20 09:11:21;;;;;;;10.70;4.20;;;14.60;99.90;;;;;;5069064;28;20053;-57
2023/05/20 09:13:50;;;;;;;8.85;4.30;;;14.70;99.90;;;;;;5074600;28;20048;-56
2023/05/20 09:16:18;;;;;;;8.85;4.30;;;14.70;99.90;;;;;;5069387;28;20622;-57
2023/05/20 09:18:46;;;;;;;9.23;3.78;;;14.80;99.90;;;;;;5075916;28;20395;-58
2023/05/20 09:21:15;;;;;;;10.15;3.75;;;14.90;99.90;;;;;;5064262;28;20056;-58
2023/05/20 09:23:48;;;;;;;8.25;3.53;;;15.00;99.90;;;;;;5064463;28;20040;-57
2023/05/20 09:26:17;;;;;;;6.90;4.10;;;15.10;99.90;;;;;;5065417;28;20055;-57
2023/05/20 09:28:45;;;;;;;9.40;4.03;;;15.20;99.90;;;;;;5073909;28;20068;-60
2023/05/20 09:31:13;;;;;;;9.07;3.88;;;15.40;99.90;;;;;;5052463;28;20048;-58
2023/05/20 09:33:43;;;;;;;10.77;4.05;;;15.50;99.90;;;;;;5063840;28;20397;-58
2023/05/20 09:36:13;;;;;;;15.15;4.28;;;15.50;99.90;;;;;;5054660;28;20385;-57
2023/05/20 09:38:46;;;;;;;11.30;4.05;;;15.60;99.90;;;;;;5058946;28;20060;-58
2023/05/20 09:41:14;;;;;;;12.25;4.05;;;15.70;99.90;;;;;;5051357;28;20439;-57
2023/05/20 09:43:43;;;;;;;12.27;4.35;;;15.90;99.90;;;;;;5060384;28;20041;-57
2023/05/20 09:46:12;;;;;;;9.23;4.05;;;16.00;99.90;;;;;;5052348;28;20048;-58
2023/05/20 09:48:40;;;;;;;7.40;3.33;;;16.10;99.90;;;;;;5057268;28;20041;-56
2023/05/20 09:51:10;;;;;;;9.73;3.50;;;16.20;99.90;;;;;;5051859;28;20289;-58
2023/05/20 09:53:39;;;;;;;6.80;3.90;;;16.30;99.90;;;;;;5063459;28;20069;-58
2023/05/20 09:56:07;;;;;;;9.63;4.20;;;16.40;99.90;;;;;;5070087;28;20041;-59
2023/05/20 09:58:39;;;;;;;7.15;3.60;;;16.40;99.90;;;;;;5080723;28;20044;-57
2023/05/20 10:01:07;;;;;;;7.72;3.05;;;16.30;99.90;;;;;;5090427;28;20076;-59
2023/05/20 10:03:35;;;;;;;8.75;3.13;;;16.70;99.90;;;;;;5074535;28;20056;-58
2023/05/20 10:06:09;;;;;;;10.50;3.42;;;16.80;99.90;;;;;;5062557;28;20408;-57
2023/05/20 10:08:50;;;;;;;8.10;3.53;;;16.90;99.90;;;;;;5055524;28;20231;-57
2023/05/20 10:11:40;;;;;;;9.40;3.20;;;17.10;99.90;;;;;;5067633;28;20400;-58
2023/05/20 10:14:27;;;;;;;;;;;17.20;99.90;;;;;;5065940;28;20048;-58
2023/05/20 10:17:18;;;;;;;10.10;4.18;;;17.30;99.90;;;;;;5068682;28;20291;-57
2023/05/20 10:19:48;;;;;;;6.65;3.65;;;17.40;99.90;;;;;;5058745;28;20048;-58
2023/05/20 10:22:30;;;;;;;9.30;4.03;;;17.60;99.70;;;;;;5060392;28;20621;-57
2023/05/20 10:25:00;;;;;;;9.98;3.88;;;17.70;98.80;;;;;;5068684;28;20037;-58
2023/05/20 10:27:28;;;;;;;10.82;4.65;;;17.80;99.40;;;;;;5069908;28;20053;-58
2023/05/20 10:29:56;;;;;;;10.48;4.28;;;17.90;98.80;;;;;;5072913;28;20045;-59
2023/05/20 10:32:24;;;;;;;7.47;3.90;;;17.90;97.50;;;;;;5058418;28;20055;-58
2023/05/20 10:34:57;;;;;;;11.60;4.10;;;18.00;97.40;;;;;;5067410;28;20476;-59
2023/05/20 10:37:38;;;;;;;11.00;4.90;;;18.10;96.30;;;;;;5065124;28;20219;-58
2023/05/20 10:40:09;;;;;;;10.57;3.90;;;18.10;96.20;;;;;;5086512;28;21147;-58
2023/05/20 10:42:37;;;;;;;9.55;3.30;;;18.20;95.80;;;;;;5069302;28;20051;-58
2023/05/20 10:45:07;;;;;;;9.77;3.40;;;18.30;93.70;;;;;;5069189;28;20041;-57
2023/05/20 10:47:35;;;;;;;8.98;2.90;;;18.30;94.20;;;;;;5072763;28;20043;-58
2023/05/20 10:50:04;;;;;;;6.93;3.30;;;19.10;94.40;;;;;;5088303;28;20063;-59
2023/05/20 10:52:36;;;;;;;5.60;2.65;;;18.60;92.40;;;;;;5055131;28;20495;-58
2023/05/20 10:55:08;;;;;;;7.82;3.08;;;18.70;92.20;;;;;;5068522;28;20044;-59
2023/05/20 10:57:36;;;;;;;7.80;2.50;;;18.80;92.20;;;;;;5072043;28;20040;-60
2023/05/20 11:00:09;;;;;;;8.38;3.55;;;18.90;90.90;;;;;;5088756;28;20052;-58
2023/05/20 11:02:38;;;;;;;8.73;3.50;;;19.00;91.50;;;;;;5084564;28;20048;-59
2023/05/20 11:05:11;;;;;;;7.07;3.13;;;19.20;91.30;;;;;;5068795;28;20048;-59
2023/05/20 11:07:39;;;;;;;7.35;3.67;;;19.30;91.20;;;;;;5056155;28;20065;-61
2023/05/20 11:10:08;;;;;;;6.88;3.42;;;19.40;91.00;;;;;;5069998;28;20396;-60
2023/05/20 11:12:36;;;;;;;6.88;2.90;;;19.50;91.40;;;;;;5058127;28;20052;-61
2023/05/20 11:15:05;;;;;;;7.38;3.05;;;19.70;91.70;;;;;;5061116;28;20049;-60
2023/05/20 11:17:33;;;;;;;7.60;2.75;;;19.80;89.40;;;;;;5071842;28;20052;-58
2023/05/20 11:20:01;;;;;;;9.50;3.08;;;19.80;89.90;;;;;;5061938;28;20052;-61
2023/05/20 11:22:30;;;;;;;8.67;3.40;;;19.90;88.10;;;;;;5055217;28;20048;-60
2023/05/20 11:24:58;;;;;;;8.52;2.97;;;19.90;85.00;;;;;;5054469;28;20044;-61
2023/05/20 11:27:27;;;;;;;8.25;3.25;;;20.00;84.90;;;;;;5058248;28;20056;-62
2023/05/20 11:29:55;;;;;;;6.57;2.70;;;20.00;84.80;;;;;;5058389;28;20040;-62
2023/05/20 11:32:22;;;;;;;6.03;2.80;;;20.10;83.40;;;;;;5063475;28;20487;-61
2023/05/20 11:34:52;;;;;;;7.88;2.70;;;20.20;81.60;;;;;;5057337;28;20047;-62
2023/05/20 11:37:20;;;;;;;6.23;2.87;;;20.30;80.60;;;;;;5043611;28;20036;-62
2023/05/20 11:40:06;;;;;;;7.88;3.15;;;20.40;81.50;;;;;;5059602;28;20044;-62
2023/05/20 11:42:35;;;;;;;7.28;3.33;;;20.70;80.10;;;;;;5058358;28;20048;-62
2023/05/20 11:45:07;;;;;;;7.82;3.10;;;20.70;80.80;;;;;;5057140;28;20438;-61
2023/05/20 11:47:38;;;;;;;6.97;2.92;;;20.90;80.50;;;;;;5061670;28;20063;-63
2023/05/20 11:50:08;;;;;;;8.30;3.05;;;21.10;78.80;;;;;;5061171;28;20321;-62
2023/05/20 11:52:37;;;;;;;8.13;3.30;;;21.30;75.40;;;;;;5058098;28;20048;-64
2023/05/20 11:55:10;;;;;;;8.57;3.10;;;21.40;76.40;;;;;;5063752;28;20041;-63
2023/05/20 11:57:39;;;;;;;6.97;3.13;;;21.70;77.20;;;;;;5055026;28;20051;-59
2023/05/20 12:00:09;;;;;;;7.47;2.90;;;21.90;76.10;;;;;;5055193;28;20404;-59
2023/05/20 12:02:37;;;;;;;8.88;3.65;;;22.30;75.00;;;;;;5060984;28;20297;-63
2023/05/20 12:05:07;;;;;;;;;;;22.30;76.00;;;;;;5056298;28;20044;-64
2023/05/20 12:07:35;;;;;;;6.97;3.03;;;22.50;73.40;;;;;;5057398;28;19925;-63
2023/05/20 12:10:04;;;;;;;8.82;4.28;;;22.80;74.40;;;;;;5054567;28;20048;-62
2023/05/20 12:12:32;;;;;;;6.22;2.75;;;23.00;71.30;;;;;;5046314;28;20500;-58
2023/05/20 12:15:03;;;;;;;7.05;3.40;;;23.30;71.40;;;;;;5051306;28;20064;-60
2023/05/20 12:17:45;;;;;;;7.38;3.33;;;23.50;70.70;;;;;;5053217;28;20044;-58
2023/05/20 12:20:15;;;;;;;7.28;2.70;;;23.80;71.30;;;;;;5055665;28;20567;-59
2023/05/20 12:22:44;;;;;;;8.45;3.78;;;24.00;69.00;;;;;;5054288;28;20535;-63
2023/05/20 12:25:14;;;;;;;6.95;3.53;;;24.10;69.00;;;;;;5050787;28;20057;-60
2023/05/20 12:27:46;;;;;;;9.00;3.38;;;24.20;69.20;;;;;;5054917;28;20044;-64
2023/05/20 12:30:16;;;;;;;6.13;3.08;;;24.40;69.40;;;;;;5051401;28;20053;-60
2023/05/20 12:32:46;;;;;;;7.00;3.15;;;24.50;64.80;;;;;;5051548;28;20041;-61
2023/05/20 12:35:14;;;;;;;6.18;3.08;;;24.50;65.30;;;;;;5055735;28;20049;-61
2023/05/20 12:37:43;;;;;;;6.50;3.15;;;24.70;65.80;;;;;;5054172;28;20057;-63
2023/05/20 12:40:11;;;;;;;10.68;3.75;;;24.70;65.60;;;;;;5051074;28;20265;-63
2023/05/20 12:42:40;;;;;;;6.28;4.03;;;24.80;64.70;;;;;;5060452;28;20059;-64
2023/05/20 12:45:09;;;;;;;5.93;3.70;;;24.90;65.70;;;;;;5059871;28;20044;-63
2023/05/20 12:47:38;;;;;;;11.43;4.82;;;24.90;65.80;;;;;;5064999;28;20045;-64
2023/05/20 12:50:06;;;;;;;7.43;3.72;;;25.10;67.20;;;;;;5062879;28;20044;-63
2023/05/20 12:52:34;;;;;;;6.15;4.07;;;25.30;67.20;;;;;;5052284;28;20048;-60
2023/05/20 12:55:12;;;;;;;8.80;3.90;;;25.50;66.10;;;;;;5051758;28;20041;-61